createdAt,value
2019-02-09T00:00:40.567Z,0
2019-02-09T00:01:42.698Z,0
2019-02-09T00:02:45.202Z,0
2019-02-09T00:03:47.310Z,0
2019-02-09T00:04:49.442Z,0
2019-02-09T00:05:51.555Z,0
2019-02-09T00:06:53.670Z,0
2019-02-09T00:07:55.775Z,0
2019-02-09T00:08:57.905Z,0
2019-02-09T00:10:00.029Z,0
2019-02-09T00:11:02.222Z,0
2019-02-09T00:12:04.335Z,0
2019-02-09T00:13:06.471Z,0
2019-02-09T00:14:08.582Z,0
2019-02-09T00:15:10.698Z,0
2019-02-09T00:16:12.825Z,0
2019-02-09T00:17:15.240Z,0
2019-02-09T00:18:17.350Z,0
2019-02-09T00:19:19.473Z,0
2019-02-09T00:20:21.588Z,0
2019-02-09T00:21:23.994Z,0
2019-02-09T00:22:26.420Z,0
2019-02-09T00:23:28.543Z,0
2019-02-09T00:24:30.641Z,0
2019-02-09T00:25:32.769Z,0
2019-02-09T00:26:34.884Z,0
2019-02-09T00:27:36.998Z,0
2019-02-09T00:28:39.114Z,0
2019-02-09T00:29:46.027Z,0
2019-02-09T00:30:48.662Z,0
2019-02-09T00:31:50.783Z,0
2019-02-09T00:32:53.239Z,0
2019-02-09T00:33:55.404Z,0
2019-02-09T00:34:57.932Z,0
2019-02-09T00:36:00.327Z,0
2019-02-09T00:37:02.820Z,0
2019-02-09T00:38:04.948Z,0
2019-02-09T00:39:07.053Z,0
2019-02-09T00:40:09.450Z,0
2019-02-09T00:41:11.573Z,0
2019-02-09T00:42:13.711Z,0
2019-02-09T00:43:15.824Z,0
2019-02-09T00:44:17.943Z,0
2019-02-09T00:45:20.063Z,0
2019-02-09T00:46:22.160Z,0
2019-02-09T00:47:24.306Z,0
2019-02-09T00:48:26.420Z,0
2019-02-09T00:49:28.532Z,0
2019-02-09T00:50:30.655Z,0
2019-02-09T00:51:32.781Z,0
2019-02-09T00:52:34.890Z,0
2019-02-09T00:53:37.015Z,0
2019-02-09T00:54:39.131Z,0
2019-02-09T00:55:41.233Z,0
2019-02-09T00:56:43.352Z,0
2019-02-09T00:57:45.472Z,0
2019-02-09T00:58:47.571Z,0
2019-02-09T00:59:54.111Z,0
2019-02-09T01:00:56.545Z,0
2019-02-09T01:01:58.654Z,0
2019-02-09T01:03:00.784Z,0
2019-02-09T01:04:02.921Z,0
2019-02-09T01:05:05.422Z,0
2019-02-09T01:06:07.540Z,0
2019-02-09T01:07:09.661Z,0
2019-02-09T01:08:11.773Z,0
2019-02-09T01:09:13.898Z,0
2019-02-09T01:10:16.034Z,0
2019-02-09T01:11:18.141Z,0
2019-02-09T01:12:20.662Z,0
2019-02-09T01:13:22.777Z,0
2019-02-09T01:14:24.904Z,0
2019-02-09T01:15:27.018Z,0
2019-02-09T01:16:29.151Z,0
2019-02-09T01:17:31.264Z,0
2019-02-09T01:18:33.375Z,0
2019-02-09T01:19:35.549Z,0
2019-02-09T01:20:37.658Z,0
2019-02-09T01:21:39.771Z,0
2019-02-09T01:22:41.896Z,0
2019-02-09T01:23:44.012Z,0
2019-02-09T01:24:46.129Z,0
2019-02-09T01:25:48.249Z,0
2019-02-09T01:26:50.383Z,0
2019-02-09T01:27:52.884Z,0
2019-02-09T01:28:54.989Z,0
2019-02-09T01:30:02.074Z,0
2019-02-09T01:31:04.985Z,0
2019-02-09T01:32:07.080Z,0
2019-02-09T01:33:09.211Z,0
2019-02-09T01:34:11.340Z,0
2019-02-09T01:35:13.450Z,0
2019-02-09T01:36:15.589Z,0
2019-02-09T01:37:17.714Z,0
2019-02-09T01:38:19.820Z,0
2019-02-09T01:39:21.925Z,0
2019-02-09T01:40:24.057Z,0
2019-02-09T01:41:26.165Z,0
2019-02-09T01:42:28.277Z,0
2019-02-09T01:43:30.404Z,0
2019-02-09T01:44:32.501Z,0
2019-02-09T01:45:34.635Z,0
2019-02-09T01:46:36.746Z,0
2019-02-09T01:47:38.873Z,0
2019-02-09T01:48:40.969Z,0
2019-02-09T01:49:43.373Z,0
2019-02-09T01:50:45.486Z,0
2019-02-09T01:51:47.597Z,0
2019-02-09T01:52:49.731Z,0
2019-02-09T01:53:51.888Z,0
2019-02-09T01:54:54.015Z,0
2019-02-09T01:55:56.142Z,0
2019-02-09T01:56:58.277Z,0
2019-02-09T01:58:00.378Z,0
2019-02-09T01:59:02.519Z,0
2019-02-09T02:00:10.296Z,0
2019-02-09T02:01:12.879Z,0
2019-02-09T02:02:15.007Z,0
2019-02-09T02:03:17.127Z,0
2019-02-09T02:04:19.548Z,0
2019-02-09T02:05:21.649Z,0
2019-02-09T02:06:23.780Z,0
2019-02-09T02:07:25.899Z,0
2019-02-09T02:08:28.015Z,0
2019-02-09T02:09:30.431Z,0
2019-02-09T02:10:32.545Z,0
2019-02-09T02:11:34.972Z,0
2019-02-09T02:12:37.078Z,0
2019-02-09T02:13:39.205Z,0
2019-02-09T02:14:41.691Z,0
2019-02-09T02:15:43.813Z,0
2019-02-09T02:16:45.958Z,0
2019-02-09T02:17:48.330Z,0
2019-02-09T02:18:50.522Z,0
2019-02-09T02:19:52.635Z,0
2019-02-09T02:20:54.765Z,0
2019-02-09T02:21:56.881Z,0
2019-02-09T02:22:59.303Z,0
2019-02-09T02:24:01.432Z,0
2019-02-09T02:25:03.539Z,0
2019-02-09T02:26:05.671Z,0
2019-02-09T02:27:08.069Z,0
2019-02-09T02:28:10.184Z,0
2019-02-09T02:29:12.307Z,0
2019-02-09T02:30:21.893Z,0
2019-02-09T02:31:25.787Z,0
2019-02-09T02:32:27.929Z,0
2019-02-09T02:33:30.990Z,0
2019-02-09T02:34:33.105Z,0
2019-02-09T02:35:35.242Z,0
2019-02-09T02:36:37.678Z,0
2019-02-09T02:37:40.093Z,0
2019-02-09T02:38:42.227Z,0
2019-02-09T02:39:44.372Z,0
2019-02-09T02:40:46.870Z,0
2019-02-09T02:41:48.990Z,0
2019-02-09T02:42:51.127Z,0
2019-02-09T02:43:53.650Z,0
2019-02-09T02:44:56.047Z,0
2019-02-09T02:45:58.163Z,0
2019-02-09T02:47:00.573Z,0
2019-02-09T02:48:02.679Z,0
2019-02-09T02:49:05.474Z,0
2019-02-09T02:50:07.603Z,0
2019-02-09T02:51:09.705Z,0
2019-02-09T02:52:12.237Z,0
2019-02-09T02:53:14.354Z,0
2019-02-09T02:54:18.540Z,0
2019-02-09T02:55:20.958Z,0
2019-02-09T02:56:23.091Z,0
2019-02-09T02:57:25.591Z,0
2019-02-09T02:58:28.013Z,0
2019-02-09T02:59:30.145Z,0
2019-02-09T03:00:33.049Z,0
2019-02-09T03:01:35.999Z,0
2019-02-09T03:02:38.139Z,0
2019-02-09T03:03:40.578Z,0
2019-02-09T03:04:42.689Z,0
2019-02-09T03:05:44.800Z,0
2019-02-09T03:06:47.875Z,0
2019-02-09T03:07:50.105Z,0
2019-02-09T03:08:52.235Z,0
2019-02-09T03:09:54.631Z,0
2019-02-09T03:10:56.737Z,0
2019-02-09T03:11:58.876Z,0
2019-02-09T03:13:00.986Z,0
2019-02-09T03:14:03.386Z,0
2019-02-09T03:15:05.795Z,0
2019-02-09T03:16:07.909Z,0
2019-02-09T03:17:10.028Z,0
2019-02-09T03:18:12.152Z,0
2019-02-09T03:19:14.274Z,0
2019-02-09T03:20:16.380Z,0
2019-02-09T03:21:18.508Z,0
2019-02-09T03:22:20.686Z,0
2019-02-09T03:23:22.792Z,0
2019-02-09T03:24:25.235Z,0
2019-02-09T03:25:27.341Z,0
2019-02-09T03:26:29.455Z,0
2019-02-09T03:27:31.561Z,0
2019-02-09T03:28:33.792Z,0
2019-02-09T03:29:36.191Z,0
2019-02-09T03:30:47.408Z,0
2019-02-09T03:31:52.064Z,0
2019-02-09T03:32:54.607Z,0
2019-02-09T03:33:58.373Z,0
2019-02-09T03:35:00.492Z,0
2019-02-09T03:36:02.612Z,0
2019-02-09T03:37:05.059Z,0
2019-02-09T03:38:07.204Z,0
2019-02-09T03:39:09.615Z,0
2019-02-09T03:40:12.046Z,0
2019-02-09T03:41:14.474Z,0
2019-02-09T03:42:16.878Z,0
2019-02-09T03:43:18.994Z,0
2019-02-09T03:44:21.133Z,0
2019-02-09T03:45:23.517Z,0
2019-02-09T03:46:25.634Z,0
2019-02-09T03:47:27.749Z,0
2019-02-09T03:48:29.865Z,0
2019-02-09T03:49:31.998Z,0
2019-02-09T03:50:34.509Z,0
2019-02-09T03:51:36.630Z,0
2019-02-09T03:52:39.151Z,0
2019-02-09T03:53:41.282Z,0
2019-02-09T03:54:43.388Z,0
2019-02-09T03:55:45.514Z,0
2019-02-09T03:56:47.970Z,0
2019-02-09T03:57:50.411Z,0
2019-02-09T03:58:52.803Z,0
2019-02-09T03:59:54.919Z,0
2019-02-09T04:00:57.060Z,0
2019-02-09T04:01:59.195Z,0
2019-02-09T04:03:01.301Z,0
2019-02-09T04:04:04.184Z,0
2019-02-09T04:05:06.309Z,0
2019-02-09T04:06:08.409Z,0
2019-02-09T04:07:10.541Z,0
2019-02-09T04:08:12.652Z,0
2019-02-09T04:09:14.758Z,0
2019-02-09T04:10:16.881Z,0
2019-02-09T04:11:19.022Z,0
2019-02-09T04:12:21.142Z,0
2019-02-09T04:13:23.585Z,0
2019-02-09T04:14:25.735Z,0
2019-02-09T04:15:27.844Z,0
2019-02-09T04:16:30.646Z,0
2019-02-09T04:17:33.182Z,0
2019-02-09T04:18:35.573Z,0
2019-02-09T04:19:37.699Z,0
2019-02-09T04:20:39.827Z,0
2019-02-09T04:21:42.210Z,0
2019-02-09T04:22:44.651Z,0
2019-02-09T04:23:46.759Z,0
2019-02-09T04:24:48.873Z,0
2019-02-09T04:25:50.978Z,0
2019-02-09T04:26:53.170Z,0
2019-02-09T04:27:55.277Z,0
2019-02-09T04:28:57.398Z,0
2019-02-09T04:29:59.522Z,0
2019-02-09T04:31:05.692Z,0
2019-02-09T04:32:09.423Z,0
2019-02-09T04:33:11.534Z,0
2019-02-09T04:34:14.655Z,0
2019-02-09T04:35:16.763Z,0
2019-02-09T04:36:19.577Z,0
2019-02-09T04:37:21.688Z,0
2019-02-09T04:38:23.798Z,0
2019-02-09T04:39:25.933Z,0
2019-02-09T04:40:28.733Z,0
2019-02-09T04:41:31.189Z,0
2019-02-09T04:42:33.325Z,0
2019-02-09T04:43:35.441Z,0
2019-02-09T04:44:37.569Z,0
2019-02-09T04:45:39.696Z,0
2019-02-09T04:46:41.805Z,0
2019-02-09T04:47:44.251Z,0
2019-02-09T04:48:46.395Z,0
2019-02-09T04:49:48.793Z,0
2019-02-09T04:50:50.947Z,0
2019-02-09T04:51:53.101Z,0
2019-02-09T04:52:55.314Z,0
2019-02-09T04:53:58.098Z,0
2019-02-09T04:55:00.254Z,0
2019-02-09T04:56:02.354Z,0
2019-02-09T04:57:04.517Z,0
2019-02-09T04:58:06.637Z,0
2019-02-09T04:59:08.774Z,0
2019-02-09T05:00:11.156Z,0
2019-02-09T05:01:14.182Z,0
2019-02-09T05:02:16.460Z,0
2019-02-09T05:03:18.858Z,0
2019-02-09T05:04:21.000Z,0
2019-02-09T05:05:23.177Z,0
2019-02-09T05:06:26.161Z,0
2019-02-09T05:07:28.888Z,0
2019-02-09T05:08:31.339Z,0
2019-02-09T05:09:33.454Z,0
2019-02-09T05:10:35.571Z,0
2019-02-09T05:11:37.725Z,0
2019-02-09T05:12:40.675Z,0
2019-02-09T05:13:42.805Z,0
2019-02-09T05:14:45.209Z,0
2019-02-09T05:15:47.636Z,0
2019-02-09T05:16:49.758Z,0
2019-02-09T05:17:51.868Z,0
2019-02-09T05:18:54.597Z,0
2019-02-09T05:19:56.708Z,0
2019-02-09T05:20:59.260Z,0
2019-02-09T05:22:01.429Z,0
2019-02-09T05:23:03.544Z,0
2019-02-09T05:24:05.681Z,0
2019-02-09T05:25:07.811Z,0
2019-02-09T05:26:10.602Z,0
2019-02-09T05:27:12.716Z,0
2019-02-09T05:28:14.846Z,0
2019-02-09T05:29:16.954Z,0
2019-02-09T05:30:19.378Z,0
2019-02-09T05:31:23.048Z,0
2019-02-09T05:32:25.758Z,0
2019-02-09T05:33:27.861Z,0
2019-02-09T05:34:30.658Z,0
2019-02-09T05:35:32.773Z,0
2019-02-09T05:36:35.174Z,0
2019-02-09T05:37:37.719Z,0
2019-02-09T05:38:40.261Z,0
2019-02-09T05:39:42.658Z,0
2019-02-09T05:40:45.372Z,0
2019-02-09T05:41:47.511Z,0
2019-02-09T05:42:49.951Z,0
2019-02-09T05:43:52.699Z,0
2019-02-09T05:44:54.834Z,0
2019-02-09T05:45:56.931Z,0
2019-02-09T05:46:59.058Z,0
2019-02-09T05:48:01.452Z,0
2019-02-09T05:49:04.190Z,0
2019-02-09T05:50:06.309Z,0
2019-02-09T05:51:08.738Z,0
2019-02-09T05:52:11.254Z,0
2019-02-09T05:53:14.081Z,0
2019-02-09T05:54:16.780Z,0
2019-02-09T05:55:18.877Z,0
2019-02-09T05:56:21.597Z,0
2019-02-09T05:57:24.009Z,0
2019-02-09T05:58:26.112Z,0
2019-02-09T05:59:28.249Z,0
2019-02-09T06:00:30.375Z,0
2019-02-09T06:01:32.749Z,0
2019-02-09T06:02:35.216Z,0
2019-02-09T06:03:37.339Z,0
2019-02-09T06:04:39.464Z,0
2019-02-09T06:05:41.583Z,0
2019-02-09T06:06:43.721Z,0
2019-02-09T06:07:46.214Z,0
2019-02-09T06:08:48.343Z,0
2019-02-09T06:09:50.777Z,0
2019-02-09T06:10:52.902Z,0
2019-02-09T06:11:55.033Z,0
2019-02-09T06:12:57.433Z,0
2019-02-09T06:13:59.587Z,0
2019-02-09T06:15:01.700Z,0
2019-02-09T06:16:03.830Z,0
2019-02-09T06:17:05.949Z,4
2019-02-09T06:18:08.070Z,4
2019-02-09T06:19:10.505Z,4
2019-02-09T06:20:12.650Z,4
2019-02-09T06:21:14.764Z,4
2019-02-09T06:22:17.210Z,4
2019-02-09T06:23:19.326Z,8
2019-02-09T06:24:21.429Z,8
2019-02-09T06:25:23.586Z,8
2019-02-09T06:26:27.163Z,12
2019-02-09T06:27:29.281Z,16
2019-02-09T06:28:31.431Z,12
2019-02-09T06:29:33.872Z,16
2019-02-09T06:30:35.995Z,20
2019-02-09T06:31:40.788Z,28
2019-02-09T06:32:43.378Z,32
2019-02-09T06:33:45.528Z,32
2019-02-09T06:34:47.937Z,36
2019-02-09T06:35:50.067Z,48
2019-02-09T06:36:52.208Z,60
2019-02-09T06:37:54.366Z,48
2019-02-09T06:38:57.059Z,52
2019-02-09T06:39:59.219Z,72
2019-02-09T06:41:01.807Z,92
2019-02-09T06:42:04.240Z,96
2019-02-09T06:43:06.371Z,116
2019-02-09T06:44:08.471Z,140
2019-02-09T06:45:10.605Z,132
2019-02-09T06:46:12.725Z,128
2019-02-09T06:47:15.127Z,148
2019-02-09T06:48:17.226Z,204
2019-02-09T06:49:19.758Z,236
2019-02-09T06:50:21.923Z,284
2019-02-09T06:51:24.331Z,320
2019-02-09T06:52:26.460Z,364
2019-02-09T06:53:28.559Z,404
2019-02-09T06:54:31.270Z,424
2019-02-09T06:55:33.409Z,448
2019-02-09T06:56:35.522Z,472
2019-02-09T06:57:37.634Z,500
2019-02-09T06:58:39.755Z,524
2019-02-09T06:59:41.877Z,552
2019-02-09T07:00:43.995Z,576
2019-02-09T07:01:48.646Z,604
2019-02-09T07:02:51.068Z,624
2019-02-09T07:03:53.172Z,632
2019-02-09T07:04:55.343Z,640
2019-02-09T07:05:57.451Z,636
2019-02-09T07:06:59.586Z,636
2019-02-09T07:08:01.975Z,652
2019-02-09T07:09:04.114Z,688
2019-02-09T07:10:06.221Z,704
2019-02-09T07:11:08.336Z,696
2019-02-09T07:12:10.440Z,672
2019-02-09T07:13:12.856Z,624
2019-02-09T07:14:15.014Z,592
2019-02-09T07:15:17.128Z,588
2019-02-09T07:16:19.637Z,556
2019-02-09T07:17:21.729Z,596
2019-02-09T07:18:23.863Z,604
2019-02-09T07:19:26.156Z,580
2019-02-09T07:20:28.328Z,572
2019-02-09T07:21:30.433Z,652
2019-02-09T07:22:32.566Z,572
2019-02-09T07:23:34.677Z,500
2019-02-09T07:24:36.791Z,508
2019-02-09T07:25:38.915Z,528
2019-02-09T07:26:41.082Z,524
2019-02-09T07:27:43.206Z,664
2019-02-09T07:28:45.338Z,948
2019-02-09T07:29:47.451Z,892
2019-02-09T07:30:49.553Z,1084
2019-02-09T07:31:56.287Z,1148
2019-02-09T07:32:58.709Z,1100
2019-02-09T07:34:00.841Z,1044
2019-02-09T07:35:03.281Z,1096
2019-02-09T07:36:05.399Z,1264
2019-02-09T07:37:07.522Z,1460
2019-02-09T07:38:10.040Z,1592
2019-02-09T07:39:12.153Z,1744
2019-02-09T07:40:14.266Z,1932
2019-02-09T07:41:16.399Z,1968
2019-02-09T07:42:18.516Z,2124
2019-02-09T07:43:20.646Z,2236
2019-02-09T07:44:22.757Z,2500
2019-02-09T07:45:24.890Z,2796
2019-02-09T07:46:27.020Z,3164
2019-02-09T07:47:29.124Z,3452
2019-02-09T07:48:31.541Z,3592
2019-02-09T07:49:33.669Z,8764
2019-02-09T07:50:35.808Z,4548
2019-02-09T07:51:38.328Z,9004
2019-02-09T07:52:40.449Z,7812
2019-02-09T07:53:42.866Z,10988
2019-02-09T07:54:45.102Z,12684
2019-02-09T07:55:47.257Z,12816
2019-02-09T07:56:49.650Z,5664
2019-02-09T07:57:51.809Z,5740
2019-02-09T07:58:53.949Z,5040
2019-02-09T07:59:56.077Z,3396
2019-02-09T08:00:58.253Z,3424
2019-02-09T08:02:04.503Z,3412
2019-02-09T08:03:06.963Z,2820
2019-02-09T08:04:09.348Z,2852
2019-02-09T08:05:11.465Z,3016
2019-02-09T08:06:13.569Z,3292
2019-02-09T08:07:15.683Z,3124
2019-02-09T08:08:18.196Z,3732
2019-02-09T08:09:20.322Z,3808
2019-02-09T08:10:22.424Z,3264
2019-02-09T08:11:24.847Z,3572
2019-02-09T08:12:26.975Z,4048
2019-02-09T08:13:29.094Z,2276
2019-02-09T08:14:31.264Z,1812
2019-02-09T08:15:33.364Z,1996
2019-02-09T08:16:35.494Z,2796
2019-02-09T08:17:37.919Z,3612
2019-02-09T08:18:40.053Z,3592
2019-02-09T08:19:42.162Z,3396
2019-02-09T08:20:44.290Z,3772
2019-02-09T08:21:46.420Z,4076
2019-02-09T08:22:48.541Z,5608
2019-02-09T08:23:50.671Z,5396
2019-02-09T08:24:52.773Z,4904
2019-02-09T08:25:54.900Z,5816
2019-02-09T08:26:57.393Z,6260
2019-02-09T08:27:59.531Z,5492
2019-02-09T08:29:01.640Z,5484
2019-02-09T08:30:03.768Z,5812
2019-02-09T08:31:06.266Z,6468
2019-02-09T08:32:12.679Z,6528
2019-02-09T08:33:15.202Z,6832
2019-02-09T08:34:17.602Z,7512
2019-02-09T08:35:19.989Z,8572
2019-02-09T08:36:22.389Z,9312
2019-02-09T08:37:24.557Z,9516
2019-02-09T08:38:26.997Z,8656
2019-02-09T08:39:29.407Z,8532
2019-02-09T08:40:31.519Z,8540
2019-02-09T08:41:33.618Z,10512
2019-02-09T08:42:35.734Z,12620
2019-02-09T08:43:37.862Z,12048
2019-02-09T08:44:39.969Z,9880
2019-02-09T08:45:42.096Z,8820
2019-02-09T08:46:44.247Z,13920
2019-02-09T08:47:46.652Z,7968
2019-02-09T08:48:48.801Z,7440
2019-02-09T08:49:50.919Z,8116
2019-02-09T08:50:53.042Z,8580
2019-02-09T08:51:55.149Z,8396
2019-02-09T08:52:57.342Z,7268
2019-02-09T08:53:59.449Z,7792
2019-02-09T08:55:02.243Z,6288
2019-02-09T08:56:04.376Z,6900
2019-02-09T08:57:06.493Z,5824
2019-02-09T08:58:08.627Z,5964
2019-02-09T08:59:10.748Z,5152
2019-02-09T09:00:13.147Z,4388
2019-02-09T09:01:15.246Z,5612
2019-02-09T09:02:20.523Z,8088
2019-02-09T09:03:22.973Z,12384
2019-02-09T09:04:25.093Z,21536
2019-02-09T09:05:27.218Z,16240
2019-02-09T09:06:29.359Z,13336
2019-02-09T09:07:31.478Z,11844
2019-02-09T09:08:33.589Z,12156
2019-02-09T09:09:35.986Z,13924
2019-02-09T09:10:38.117Z,14144
2019-02-09T09:11:40.224Z,13192
2019-02-09T09:12:42.360Z,14588
2019-02-09T09:13:44.483Z,17076
2019-02-09T09:14:46.597Z,14132
2019-02-09T09:15:49.004Z,14932
2019-02-09T09:16:51.421Z,16640
2019-02-09T09:17:53.516Z,15768
2019-02-09T09:18:55.638Z,12444
2019-02-09T09:19:57.758Z,11132
2019-02-09T09:21:00.249Z,12400
2019-02-09T09:22:02.397Z,14044
2019-02-09T09:23:04.508Z,16564
2019-02-09T09:24:06.935Z,19072
2019-02-09T09:25:09.055Z,15980
2019-02-09T09:26:11.186Z,15024
2019-02-09T09:27:13.300Z,15724
2019-02-09T09:28:15.695Z,52352
2019-02-09T09:29:18.098Z,16040
2019-02-09T09:30:20.195Z,35968
2019-02-09T09:31:22.322Z,46752
2019-02-09T09:32:28.608Z,52576
2019-02-09T09:33:30.979Z,52096
2019-02-09T09:34:33.078Z,45056
2019-02-09T09:35:35.204Z,45760
2019-02-09T09:36:37.321Z,27648
2019-02-09T09:37:39.443Z,20160
2019-02-09T09:38:41.591Z,10472
2019-02-09T09:39:43.706Z,8272
2019-02-09T09:40:45.825Z,7080
2019-02-09T09:41:47.933Z,6508
2019-02-09T09:42:50.051Z,8900
2019-02-09T09:43:52.231Z,8380
2019-02-09T09:44:54.355Z,7400
2019-02-09T09:45:56.483Z,8548
2019-02-09T09:46:58.918Z,8520
2019-02-09T09:48:01.038Z,13956
2019-02-09T09:49:03.481Z,16328
2019-02-09T09:50:05.610Z,14816
2019-02-09T09:51:07.717Z,22112
2019-02-09T09:52:10.147Z,23776
2019-02-09T09:53:12.279Z,23744
2019-02-09T09:54:14.388Z,10760
2019-02-09T09:55:16.526Z,41856
2019-02-09T09:56:18.633Z,13576
2019-02-09T09:57:20.774Z,12964
2019-02-09T09:58:23.215Z,30816
2019-02-09T09:59:25.353Z,17440
2019-02-09T10:00:27.463Z,26976
2019-02-09T10:01:29.594Z,19104
2019-02-09T10:02:36.387Z,12184
2019-02-09T10:03:38.757Z,9380
2019-02-09T10:04:40.889Z,9400
2019-02-09T10:05:43.014Z,10612
2019-02-09T10:06:45.155Z,11968
2019-02-09T10:07:47.264Z,9116
2019-02-09T10:08:49.402Z,11920
2019-02-09T10:09:51.522Z,13208
2019-02-09T10:10:55.346Z,14980
2019-02-09T10:11:57.482Z,17584
2019-02-09T10:12:59.589Z,30304
2019-02-09T10:14:08.651Z,59232
2019-02-09T10:15:11.445Z,11108
2019-02-09T10:16:13.562Z,15180
2019-02-09T10:17:15.674Z,12148
2019-02-09T10:18:17.805Z,54432
2019-02-09T10:19:20.222Z,22560
2019-02-09T10:20:22.340Z,21568
2019-02-09T10:21:24.454Z,23584
2019-02-09T10:22:26.573Z,21536
2019-02-09T10:23:28.698Z,32032
2019-02-09T10:24:31.085Z,16080
2019-02-09T10:25:33.218Z,60992
2019-02-09T10:26:35.739Z,48256
2019-02-09T10:27:37.849Z,39072
2019-02-09T10:28:40.020Z,8688
2019-02-09T10:29:42.129Z,55200
2019-02-09T10:30:44.553Z,56160
2019-02-09T10:31:46.658Z,55712
2019-02-09T10:32:48.810Z,38528
2019-02-09T10:33:51.209Z,14332
2019-02-09T10:34:53.327Z,61472
2019-02-09T10:35:55.467Z,9804
2019-02-09T10:36:57.620Z,56608
2019-02-09T10:37:59.750Z,62976
2019-02-09T10:39:01.877Z,61632
2019-02-09T10:40:04.002Z,62400
2019-02-09T10:41:06.105Z,64928
2019-02-09T10:42:08.235Z,62816
2019-02-09T10:43:10.346Z,12384
2019-02-09T10:44:12.463Z,51552
2019-02-09T10:45:14.599Z,61152
2019-02-09T10:46:16.713Z,14412
2019-02-09T10:47:18.836Z,15440
2019-02-09T10:48:20.967Z,10212
2019-02-09T10:49:23.090Z,22304
2019-02-09T10:50:25.214Z,20768
2019-02-09T10:51:27.639Z,13984
2019-02-09T10:52:29.750Z,9148
2019-02-09T10:53:31.881Z,9556
2019-02-09T10:54:34.014Z,19744
2019-02-09T10:55:36.142Z,11512
2019-02-09T10:56:38.550Z,11304
2019-02-09T10:57:40.685Z,10024
2019-02-09T10:58:42.803Z,9096
2019-02-09T10:59:44.925Z,12644
2019-02-09T11:00:47.054Z,17724
2019-02-09T11:01:49.559Z,17352
2019-02-09T11:02:52.302Z,69696
2019-02-09T11:03:54.533Z,35488
2019-02-09T11:04:56.663Z,14480
2019-02-09T11:05:59.161Z,15288
2019-02-09T11:07:01.290Z,12164
2019-02-09T11:08:03.412Z,10948
2019-02-09T11:09:05.531Z,18944
2019-02-09T11:10:07.667Z,27840
2019-02-09T11:11:11.632Z,74400
2019-02-09T11:12:14.035Z,20832
2019-02-09T11:13:16.158Z,17056
2019-02-09T11:14:18.298Z,13864
2019-02-09T11:15:20.412Z,51424
2019-02-09T11:16:22.553Z,14712
2019-02-09T11:17:24.963Z,13600
2019-02-09T11:18:27.072Z,13176
2019-02-09T11:19:29.204Z,19264
2019-02-09T11:20:31.322Z,15756
2019-02-09T11:21:33.436Z,10436
2019-02-09T11:22:35.838Z,10912
2019-02-09T11:23:37.971Z,9376
2019-02-09T11:24:40.369Z,7952
2019-02-09T11:25:42.512Z,6292
2019-02-09T11:26:44.647Z,5652
2019-02-09T11:27:46.752Z,6380
2019-02-09T11:28:48.874Z,8184
2019-02-09T11:29:51.002Z,8840
2019-02-09T11:30:53.102Z,5264
2019-02-09T11:31:55.554Z,5524
2019-02-09T11:33:01.827Z,7636
2019-02-09T11:34:04.711Z,8312
2019-02-09T11:35:06.815Z,7784
2019-02-09T11:36:08.946Z,6100
2019-02-09T11:37:11.077Z,5148
2019-02-09T11:38:13.204Z,5032
2019-02-09T11:39:15.310Z,4384
2019-02-09T11:40:17.440Z,3872
2019-02-09T11:41:20.128Z,3824
2019-02-09T11:42:22.297Z,5244
2019-02-09T11:43:24.438Z,10108
2019-02-09T11:44:26.553Z,15576
2019-02-09T11:45:28.677Z,14256
2019-02-09T11:46:30.793Z,14128
2019-02-09T11:47:33.361Z,17208
2019-02-09T11:48:35.470Z,17360
2019-02-09T11:49:37.604Z,13784
2019-02-09T11:50:39.732Z,15176
2019-02-09T11:51:41.840Z,12792
2019-02-09T11:52:44.119Z,11496
2019-02-09T11:53:46.241Z,11500
2019-02-09T11:54:48.627Z,12956
2019-02-09T11:55:50.751Z,27616
2019-02-09T11:56:52.878Z,20864
2019-02-09T11:57:55.281Z,18976
2019-02-09T11:58:57.413Z,71648
2019-02-09T11:59:59.532Z,38368
2019-02-09T12:01:01.775Z,15452
2019-02-09T12:02:03.923Z,51712
2019-02-09T12:03:14.538Z,14644
2019-02-09T12:04:19.645Z,15212
2019-02-09T12:05:21.770Z,12160
2019-02-09T12:06:23.890Z,9908
2019-02-09T12:07:25.997Z,8044
2019-02-09T12:08:28.139Z,7156
2019-02-09T12:09:30.254Z,6516
2019-02-09T12:10:32.436Z,7208
2019-02-09T12:11:34.576Z,6376
2019-02-09T12:12:36.700Z,6824
2019-02-09T12:13:38.833Z,10408
2019-02-09T12:14:41.347Z,19072
2019-02-09T12:15:43.855Z,18240
2019-02-09T12:16:45.991Z,13060
2019-02-09T12:17:48.096Z,11400
2019-02-09T12:18:50.510Z,25248
2019-02-09T12:19:52.632Z,11620
2019-02-09T12:20:54.779Z,8412
2019-02-09T12:21:56.889Z,6628
2019-02-09T12:22:59.012Z,6748
2019-02-09T12:24:01.138Z,5728
2019-02-09T12:25:03.252Z,5616
2019-02-09T12:26:05.388Z,7296
2019-02-09T12:27:07.509Z,6552
2019-02-09T12:28:09.935Z,5928
2019-02-09T12:29:12.055Z,6252
2019-02-09T12:30:14.191Z,7832
2019-02-09T12:31:16.303Z,10116
2019-02-09T12:32:18.723Z,12152
2019-02-09T12:33:23.011Z,12220
2019-02-09T12:34:25.772Z,10964
2019-02-09T12:35:27.888Z,8644
2019-02-09T12:36:30.019Z,6900
2019-02-09T12:37:32.123Z,6112
2019-02-09T12:38:34.282Z,5252
2019-02-09T12:39:36.427Z,4840
2019-02-09T12:40:38.540Z,5192
2019-02-09T12:41:40.679Z,6380
2019-02-09T12:42:42.786Z,7252
2019-02-09T12:43:44.915Z,8924
2019-02-09T12:44:47.029Z,13124
2019-02-09T12:45:49.177Z,12860
2019-02-09T12:46:51.287Z,18432
2019-02-09T12:47:53.738Z,16276
2019-02-09T12:48:56.151Z,13236
2019-02-09T12:49:58.287Z,13760
2019-02-09T12:51:00.406Z,13840
2019-02-09T12:52:02.519Z,15096
2019-02-09T12:53:04.628Z,15616
2019-02-09T12:54:07.146Z,15612
2019-02-09T12:55:09.255Z,16180
2019-02-09T12:56:11.382Z,17192
2019-02-09T12:57:13.511Z,15524
2019-02-09T12:58:15.677Z,15172
2019-02-09T12:59:17.814Z,14572
2019-02-09T13:00:20.222Z,13540
2019-02-09T13:01:22.330Z,11860
2019-02-09T13:02:24.476Z,10264
2019-02-09T13:03:31.133Z,12124
2019-02-09T13:04:33.776Z,14328
2019-02-09T13:05:35.923Z,14128
2019-02-09T13:06:38.052Z,16864
2019-02-09T13:07:40.187Z,15620
2019-02-09T13:08:44.501Z,13588
2019-02-09T13:09:46.624Z,12896
2019-02-09T13:10:48.738Z,12596
2019-02-09T13:11:50.873Z,12788
2019-02-09T13:12:53.001Z,15176
2019-02-09T13:13:55.110Z,13584
2019-02-09T13:14:57.568Z,13800
2019-02-09T13:15:59.691Z,13428
2019-02-09T13:17:02.398Z,13248
2019-02-09T13:18:04.535Z,14140
2019-02-09T13:19:06.672Z,14592
2019-02-09T13:20:08.784Z,15088
2019-02-09T13:21:11.582Z,16304
2019-02-09T13:22:13.714Z,16420
2019-02-09T13:23:15.835Z,15444
2019-02-09T13:24:17.971Z,16272
2019-02-09T13:25:20.095Z,15588
2019-02-09T13:26:22.515Z,14344
2019-02-09T13:27:24.625Z,15732
2019-02-09T13:28:26.748Z,15808
2019-02-09T13:29:29.175Z,15592
2019-02-09T13:30:31.358Z,14920
2019-02-09T13:31:33.819Z,15756
2019-02-09T13:32:36.232Z,15276
2019-02-09T13:33:39.190Z,12968
2019-02-09T13:34:41.756Z,13148
2019-02-09T13:35:43.871Z,13888
2019-02-09T13:36:45.985Z,13636
2019-02-09T13:37:48.120Z,13512
2019-02-09T13:38:50.228Z,15612
2019-02-09T13:39:52.350Z,17204
2019-02-09T13:40:54.873Z,14764
2019-02-09T13:41:56.997Z,14708
2019-02-09T13:42:59.109Z,13976
2019-02-09T13:44:01.259Z,15700
2019-02-09T13:45:03.377Z,13936
2019-02-09T13:46:05.493Z,14604
2019-02-09T13:47:07.656Z,16776
2019-02-09T13:48:09.767Z,17632
2019-02-09T13:49:11.893Z,15384
2019-02-09T13:50:14.009Z,13408
2019-02-09T13:51:16.171Z,13224
2019-02-09T13:52:18.290Z,12876
2019-02-09T13:53:21.018Z,11108
2019-02-09T13:54:23.145Z,9224
2019-02-09T13:55:25.267Z,8520
2019-02-09T13:56:27.698Z,9248
2019-02-09T13:57:29.810Z,10400
2019-02-09T13:58:31.933Z,8964
2019-02-09T13:59:34.045Z,8760
2019-02-09T14:00:36.195Z,10436
2019-02-09T14:01:38.308Z,10520
2019-02-09T14:02:40.444Z,8692
2019-02-09T14:03:46.782Z,5752
2019-02-09T14:04:49.232Z,4208
2019-02-09T14:05:51.678Z,4448
2019-02-09T14:06:53.810Z,4072
2019-02-09T14:07:55.993Z,4556
2019-02-09T14:08:58.124Z,4764
2019-02-09T14:10:00.274Z,3420
2019-02-09T14:11:02.431Z,2528
2019-02-09T14:12:04.538Z,2884
2019-02-09T14:13:13.958Z,2112
2019-02-09T14:14:16.941Z,1904
2019-02-09T14:15:19.062Z,1656
2019-02-09T14:16:21.177Z,1404
2019-02-09T14:17:23.307Z,1440
2019-02-09T14:18:26.000Z,1684
2019-02-09T14:19:28.130Z,1988
2019-02-09T14:20:30.260Z,2232
2019-02-09T14:21:32.365Z,2256
2019-02-09T14:22:34.495Z,2556
2019-02-09T14:23:36.614Z,3320